Terminal Aerodrome Forecast
Issued by NWS

Home | Current Version | Previous Version | Graphics & Text | Print | Product List | Glossary On
Versions: 1 2 3 4 5 6 7 8 9 10 11 12 13 14 15 16 17 18 19 20 21 22 23
268
FTUS42 KMHX 030219 AAA
TAFISO
TAF AMD
KISO 030219Z 0302/0324 24005KT P6SM -RA OVC009
     FM030600 20008KT 5SM -SHRA SCT010 OVC020
      TEMPO 0307/0309 2SM TS BKN010CB
     FM031400 22012KT 6SM -SHRA OVC040
      AMD LTD TO CLD VIS AND WIND=

USA.gov is the U.S. government's official web portal to all federal, state and local government web resources and services.